• Join FlightAware (Why Join?)
  • Login
  • US Flag 
11:06PM EDT


 

Airport Tracker/Info


-or-


 

Live Flight TrackerFlight Track Log ✈ VH-LHH ✈ 03-Aug-2013 ✈ YNEN - YTST

Flight Track Log - Related Links

Times and Time Zones

All times are in EDT time to prevent confusion due to time zone crossing. See the VH-LHH flight status page for this flight to view local times or setup timezone preferences in your user account.

Time Position Orientation Groundspeed Altitude Reporting Facility
EDT Latitude Longitude Course Direction KTS MPH feet Rate Location/Type
08:06PM -10.7992 126.0511 360° North 5,000  Level Aus ATC (Calculated)
08:07PM -10.7992 126.0511 174° South 5,000  Level Aus ATC (Calculated)
08:09PM -10.8181 126.0530 174° South  Level FlightAware Approximate
08:10PM -10.8326 126.0545 174° South  Level FlightAware Approximate
08:10PM -10.9060 126.0619 354° North 5,000  Level Aus ATC (Calculated)
08:11PM -10.8471 126.0559 174° South  Level FlightAware Approximate
08:12PM -10.9249 126.0638 174° South  Level FlightAware Approximate
08:13PM -10.9394 126.0652 174° South  Level FlightAware Approximate
08:14PM -10.9539 126.0667 174° South  Level FlightAware Approximate
08:14PM -11.0061 126.0720 354° North 5,000  Level Aus ATC (Calculated)
08:15PM -10.9684 126.0682 174° South  Level FlightAware Approximate
08:16PM -11.0308 126.0745 174° South  Level FlightAware Approximate
08:17PM -11.0453 126.0759 174° South  Level FlightAware Approximate
08:17PM -11.0999 126.0814 174° South 5,000  Level Aus ATC (Calculated)
08:19PM -11.1287 126.0843 174° South  Level FlightAware Approximate
08:20PM -11.1432 126.0858 174° South  Level FlightAware Approximate
08:21PM -11.1578 126.0873 174° South  Level FlightAware Approximate
08:22PM -11.1723 126.0888 174° South  Level FlightAware Approximate
08:23PM -11.1868 126.0902 174° South  Level FlightAware Approximate
08:24PM -11.2013 126.0917 174° South  Level FlightAware Approximate
08:24PM -11.3638 126.1081 354° North 5,000  Level Aus ATC (Calculated)
08:25PM -11.2158 126.0932 174° South  Level FlightAware Approximate
08:26PM -11.3815 126.1099 174° South  Level FlightAware Approximate
08:27PM -11.3960 126.1114 174° South  Level FlightAware Approximate
08:28PM -11.4106 126.1128 174° South  Level FlightAware Approximate
08:29PM -11.4251 126.1143 174° South  Level FlightAware Approximate
08:30PM -11.4396 126.1158 174° South  Level FlightAware Approximate
08:31PM -11.4541 126.1172 174° South  Level FlightAware Approximate
08:32PM -11.4686 126.1187 174° South  Level FlightAware Approximate
08:33PM -11.4831 126.1202 174° South  Level FlightAware Approximate
08:34PM -11.4977 126.1216 174° South  Level FlightAware Approximate
08:35PM -11.5122 126.1231 174° South  Level FlightAware Approximate
08:36PM -11.5267 126.1246 174° South  Level FlightAware Approximate
08:37PM -11.5412 126.1261 174° South  Level FlightAware Approximate
08:38PM -11.5557 126.1275 174° South  Level FlightAware Approximate
08:39PM -11.5703 126.1290 174° South  Level FlightAware Approximate
08:40PM -11.5848 126.1305 174° South  Level FlightAware Approximate
08:41PM -11.5993 126.1319 174° South  Level FlightAware Approximate
08:42PM -11.6138 126.1334 174° South  Level FlightAware Approximate
08:43PM -11.6284 126.1349 174° South  Level FlightAware Approximate
08:44PM -11.6429 126.1363 174° South  Level FlightAware Approximate
08:45PM -11.6574 126.1378 174° South  Level FlightAware Approximate
08:46PM -11.6719 126.1393 174° South  Level FlightAware Approximate
08:47PM -11.6864 126.1407 174° South  Level FlightAware Approximate
08:48PM -11.7009 126.1422 174° South  Level FlightAware Approximate
08:49PM -11.7155 126.1437 174° South  Level FlightAware Approximate
08:50PM -11.7300 126.1452 174° South  Level FlightAware Approximate
08:51PM -11.7445 126.1466 174° South  Level FlightAware Approximate
08:52PM -11.7590 126.1481 174° South  Level FlightAware Approximate
08:53PM -11.7736 126.1496 174° South  Level FlightAware Approximate
08:54PM -11.7881 126.1510 174° South  Level FlightAware Approximate
08:54PM -12.2930 126.2024 174° South 5,000  Level Aus ATC (Calculated)
08:56PM -12.3189 126.2050 174° South  Level FlightAware Approximate
08:57PM -12.3334 126.2065 174° South  Level FlightAware Approximate
08:58PM -12.3479 126.2079 174° South  Level FlightAware Approximate
08:58PM -12.4002 126.2133 174° South 5,000  Level Aus ATC (Calculated)
08:59PM -12.4538 126.2187 174° South 5,000  Level Aus ATC (Calculated)
09:01PM -12.4784 126.2213 174° South  Level FlightAware Approximate
09:02PM -12.4930 126.2227 174° South  Level FlightAware Approximate
09:02PM -12.5074 126.2242 174° South  Level Aus ATC (Calculated)
09:03PM -12.5219 126.2257 174° South  Level FlightAware Approximate
09:03PM -12.6063 126.2343 174° South 500  Level Aus ATC (Calculated)
09:05PM -12.6267 126.2364 174° South  Level FlightAware Approximate
09:06PM -12.6415 126.2379 174° South  Level FlightAware Approximate
09:07PM -12.6563 126.2394 174° South  Level FlightAware Approximate
09:08PM -12.6711 126.2409 174° South  Level FlightAware Approximate
09:09PM -12.6859 126.2424 174° South  Level FlightAware Approximate
09:10PM -12.7007 126.2439 174° South  Level FlightAware Approximate
09:11PM -12.7155 126.2454 174° South  Level FlightAware Approximate
09:12PM -12.7303 126.2469 174° South  Level FlightAware Approximate
09:13PM -12.7451 126.2485 174° South  Level FlightAware Approximate
09:14PM -12.7598 126.2500 174° South  Level FlightAware Approximate
09:15PM -12.7746 126.2515 174° South  Level FlightAware Approximate
09:16PM -12.7894 126.2530 174° South  Level FlightAware Approximate
09:17PM -12.8042 126.2545 174° South  Level FlightAware Approximate
09:18PM -12.8190 126.2560 174° South  Level FlightAware Approximate
09:19PM -12.8338 126.2575 174° South  Level FlightAware Approximate
09:20PM -12.8486 126.2590 174° South  Level FlightAware Approximate
09:21PM -12.8634 126.2605 174° South  Level FlightAware Approximate
09:22PM -12.8782 126.2620 174° South  Level FlightAware Approximate
09:23PM -12.8930 126.2635 174° South  Level FlightAware Approximate
09:24PM -12.9077 126.2651 174° South  Level FlightAware Approximate
09:25PM -12.9225 126.2666 174° South  Level FlightAware Approximate
09:26PM -12.9373 126.2681 174° South  Level FlightAware Approximate
09:27PM -12.9521 126.2696 174° South  Level FlightAware Approximate
09:28PM -12.9669 126.2711 174° South  Level FlightAware Approximate
09:29PM -12.9817 126.2726 174° South  Level FlightAware Approximate
09:30PM -12.9965 126.2741 174° South  Level FlightAware Approximate
09:31PM -13.0113 126.2756 174° South  Level FlightAware Approximate
09:32PM -13.0261 126.2771 174° South  Level FlightAware Approximate
09:33PM -13.0408 126.2787 174° South  Level FlightAware Approximate
09:33PM -13.5953 126.3316 355° North  Level Aus ATC (Calculated)
09:34PM -13.0556 126.2802 174° South  Level FlightAware Approximate
09:35PM -13.6113 126.3334 174° South  Level FlightAware Approximate
09:36PM -13.6260 126.3350 174° South  Level FlightAware Approximate
09:37PM -13.6408 126.3366 174° South  Level FlightAware Approximate
09:38PM -13.6556 126.3383 174° South  Level FlightAware Approximate
09:39PM -13.6704 126.3399 174° South  Level FlightAware Approximate
09:40PM -13.6852 126.3416 174° South  Level FlightAware Approximate
09:41PM -13.6999 126.3432 174° South  Level FlightAware Approximate
09:42PM -13.7147 126.3448 174° South  Level FlightAware Approximate
09:43PM -13.7295 126.3465 174° South  Level FlightAware Approximate
09:44PM -13.7443 126.3481 174° South  Level FlightAware Approximate
09:45PM -13.7591 126.3497 174° South  Level FlightAware Approximate
09:46PM -13.7738 126.3514 174° South  Level FlightAware Approximate
09:47PM -13.7886 126.3530 174° South  Level FlightAware Approximate
09:48PM -13.8034 126.3547 174° South  Level FlightAware Approximate
09:48PM -13.9908 126.3764 174° South 500  Level Aus ATC (Calculated)
09:49PM -14.0056 126.3779 174° South  Level FlightAware Approximate